Arlee, MT (59821)

3:54 AM MDT on August 19, 2017 (GMT -0600)
Thisledome Family Forest | | Change Station
Active Advisory: Fire Weather Warning

Elev 3783 ft 47.14 °N, 114.12 °W | Updated 21 seconds ago

Clear
Clear
57.4 °F
Feels Like 57.4 °F
N
3.7
Wind Variable Wind from WSW

Today
High -- | Low -- °F
--% Chance of Precip.
Yesterday
High -- | Low -- °F
Precip. -- in
Pressure 29.92 in
Visibility 10.0 miles
Clouds Clear
Dew Point 34 °F
Humidity 42%
Rainfall 0.00 in
Snow Depth Not available.
6:38 AM 8:39 PM
Waning Crescent, 7% visible
METAR KMSO 190853Z AUTO 34006KT 10SM CLR 18/01 A2999 RMK AO2 SLP130 T01780011 53001
Pressure 29.92 in
Visibility 10.0 miles
Clouds Clear
Dew Point 34 °F
Humidity 42%
Rainfall 0.00 in
Snow Depth Not available.
6:38 AM 8:39 PM
Waning Crescent, 7% visible
METAR KMSO 190853Z AUTO 34006KT 10SM CLR 18/01 A2999 RMK AO2 SLP130 T01780011 53001

Get Your Daily Forecast Email!

Thanks for signing up!

Be on the lookout for a verification email in your inbox.

You'll start receiving severe weather alerts in your inbox..

×

10-Day Weather Forecast

Almanac

Astronomy

Aug. 19, 2017 Rise Set
Actual Time
Civil Twilight
Nautical Twilight
Astronomical Twilight
Moon
Length of Visible Light
Length of Day
Tomorrow will be .
, % of the Moon is Illuminated

Today's Extremes

State Highs State Lows

Community

WunderPhotos

Category 6

Welcome to Category 6. This is the collective home for Weather Underground's featured writeups by Dr. Jeff Masters (right), Bob Henson (left), Chris Burt, and other regular contributors.

Nearby

Air Quality

  Air Quality AQ Index Pollutant
Not available.

Snow Depth

Station Depth Elevation

Earthquake Activity

City Distance Mag. Time & Date
Minimum magnitude displayed is 2.5.

Coastal Water Temperatures

Place Temperature

Stations

Nearby Weather Stations

Station Location Temp. Windchill Dew Point Humidity Wind Precip. Elev Updated Type
                   

Watches & Warnings

Fire Weather Warning
Issued: 3:24 AM MDT Aug. 19, 2017 – National Weather Service

... Red flag warning remains in effect until 6 am MDT early this
morning...

* affected area: fire zone 105 (flathead/Glacier park). Fire
zone 106 (west lolo). Fire zone 107 (salish and Kootenai
reservation).

* Impacts/timing: wind and dry conditions will likely occur on the
midslopes and ridges early this morning.

* Winds: west winds 15 to 20 mph with gusts to 30 mph through
exposed areas.

* Minimum humidities: 8 to 18 percent.